Aeroporto :
LOGIN :

Iscrizione | Disclaimer

   EN    FR    IT 

 










Sommario :    VFR   VFR Marginale   IFR   IFR Intensivo   IFR Molto Intensivo
Visibilità : 
Base nubi : 
>= 8 km
>= 3000ft
5 / 8 km
1000 / 3000 ft
1500m / 5 km
500 / 1000 ft
800 / 1500m
200 / 500 ft
< 800m
< 200 ft
Simboli :   Temporali  Nebbia  Neve Forte  Precipitazioni Forti  Vento > 20 kt
SIGMETs :   Varie  Temporali  Ghiacco  Turbolenza  Onda orograficha  Ceneri Vulcaniche






- Altitudine del aeroporto : 200 ft


EBBL - Klein Brogel AB

ULTIMO METAR :
  • 230155Z AUTO VRB02KT 7000 FEW051/// 13/09 Q1006 WHT

METARs OBSOLETI :
  • 230125Z AUTO 22003KT 9000 FEW052/// 13/09 Q1006 BLU
  • 230055Z AUTO 21003KT 9000 FEW062/// 13/10 Q1006 BLU
  • 230046Z AUTO 21003KT 7000 FEW062/// 12/09 Q1006 WHT
  • 230025Z AUTO VRB02KT 9999 FEW066/// 10/08 Q1006 BLU
  • 230004Z AUTO VRB02KT 4900 NCD 11/09 Q1006 GRN
  • 222355Z AUTO VRB02KT 6000 NCD 10/08 Q1006 WHT
  • 222352Z AUTO VRB02KT 4800 NCD 10/08 Q1006 GRN
  • 222334Z AUTO VRB02KT 7000 NCD 10/08 Q1006 WHT
  • 222325Z AUTO VRB02KT 9000 NCD 11/08 Q1006 BLU

TAF TAF EBBL
Valido dal 22 a 19 ore il 23 a 07 ore UTC


221541Z 2219/2307 VRB02KT 9999 SKC
BECMG 2303/2305 22005KT SCT040



MetMap, La meteo Aeronautica in un colpo d'occhio ! - Copyright ORBIFLY Dicembre 2007 - Disclaimer

ORBIFLY MET'MAP TEAM :

Programmazione e sviluppo : Alexandra Zaïnal
Concezione : Baudouin d'Aumeries
Aiuto per la programmazione : Marc-Olivier Méhu
Supporto tecnico e logistico : Manuel Goepfert
Aiuto per la traduzione : Arnaldo La Scala

Contatto : metmap@orbifly.com




FONTI E CREDITI :

   NOAA